Time;durP1;ratioP1;P1;durP2;ratioP2;P2;SDS_P1;SDS_P2;PMS_P1;PMS_P2;Temp;Humidity;BMP_temperature;BMP_pressure;BME280_temperature;BME280_humidity;BME280_pressure;Samples;Min_cycle;Max_cycle;Signal;HPM_P1;HPM_P2
2022/06/16 00:01:59;;;;;;;11.30;10.13;;;;;;;20.54;89.97;99885.44;5071607;28;20574;-55
2022/06/16 00:04:26;;;;;;;14.10;10.43;;;;;;;20.59;89.56;99888.81;5071631;28;20191;-56
2022/06/16 00:06:56;;;;;;;10.83;9.77;;;;;;;20.64;89.35;99878.28;5071558;28;20223;-55
2022/06/16 00:09:23;;;;;;;11.00;9.87;;;;;;;20.50;89.64;99877.66;5071434;28;20199;-55
2022/06/16 00:11:50;;;;;;;12.67;10.00;;;;;;;20.45;89.44;99854.25;5071146;28;20196;-55
2022/06/16 00:14:18;;;;;;;12.17;9.53;;;;;;;20.58;89.57;99881.00;5071214;28;20239;-56
2022/06/16 00:16:45;;;;;;;11.60;10.00;;;;;;;20.62;89.31;99881.81;5071391;28;20192;-55
2022/06/16 00:19:11;;;;;;;10.83;9.67;;;;;;;20.64;89.12;99886.09;5071340;28;20562;-55
2022/06/16 00:21:38;;;;;;;10.13;9.10;;;;;;;20.68;88.68;99882.56;5071077;28;20196;-55
2022/06/16 00:24:08;;;;;;;11.83;9.17;;;;;;;20.59;88.77;99882.72;5071129;28;20199;-55
2022/06/16 00:26:35;;;;;;;17.50;9.90;;;;;;;20.40;89.07;99852.63;5070850;28;20222;-54
2022/06/16 00:29:01;;;;;;;9.87;7.97;;;;;;;20.62;88.68;99884.41;5070582;28;20321;-55
2022/06/16 00:31:28;;;;;;;11.23;8.50;;;;;;;20.57;88.79;99879.28;5071203;28;20191;-55
2022/06/16 00:33:55;;;;;;;12.20;8.07;;;;;;;20.45;89.61;99877.75;5071023;28;20192;-55
2022/06/16 00:36:24;;;;;;;8.40;7.40;;;;;;;20.50;89.42;99873.31;5071049;28;20188;-55
2022/06/16 00:38:51;;;;;;;9.30;7.07;;;;;;;20.52;89.11;99874.13;5070710;28;20207;-55
2022/06/16 00:41:19;;;;;;;10.80;7.33;;;;;;;20.39;89.68;99870.03;5071025;28;20241;-55
2022/06/16 00:43:46;;;;;;;8.50;7.33;;;;;;;20.42;89.38;99862.13;5070491;28;20219;-55
2022/06/16 00:46:15;;;;;;;9.43;7.00;;;;;;;20.35;89.93;99862.28;5070501;28;20230;-55
2022/06/16 00:48:46;;;;;;;9.17;7.13;;;;;;;20.32;90.12;99855.38;5070587;28;20198;-56
2022/06/16 00:51:20;;;;;;;11.47;7.27;;;;;;;20.30;90.49;99859.72;5070546;28;20188;-55
2022/06/16 00:53:48;;;;;;;8.23;6.57;;;;;;;20.06;90.40;99820.97;5070823;28;20200;-55
2022/06/16 00:56:20;;;;;;;9.80;6.73;;;;;;;20.37;90.41;99871.81;5070522;28;20196;-56
2022/06/16 00:58:49;;;;;;;7.30;6.50;;;;;;;20.38;89.90;99868.28;5070798;28;20195;-56
2022/06/16 01:01:20;;;;;;;9.20;6.40;;;;;;;20.37;89.99;99861.38;5070474;28;20667;-55
2022/06/16 01:06:31;;;;;;;11.37;7.00;;;;;;;20.56;88.99;99865.38;5070376;28;20256;-56
2022/06/16 01:09:05;;;;;;;7.50;6.57;;;;;;;20.60;88.67;99863.56;5070395;28;20187;-56
2022/06/16 01:14:55;;;;;;;7.87;6.30;;;;;;;20.49;89.07;99863.72;5070373;28;20630;-55
2022/06/16 01:17:30;;;;;;;10.10;6.20;;;;;;;20.58;88.82;99868.81;5070434;28;20191;-55
2022/06/16 01:20:12;;;;;;;10.07;6.00;;;;;;;20.62;88.46;99866.13;5070300;28;20192;-55
2022/06/16 01:23:25;;;;;;;6.87;6.17;;;;;;;20.59;88.53;99867.06;5069959;28;20231;-55
2022/06/16 01:26:01;;;;;;;7.60;6.32;;;;;;;20.48;89.20;99864.66;5056833;28;20967;-56
2022/06/16 01:28:32;;;;;;;8.90;7.00;;;;;;;20.57;88.71;99861.00;5070043;28;20198;-56
2022/06/16 01:31:08;;;;;;;7.07;6.30;;;;;;;20.67;88.58;99864.28;5069942;28;20203;-55
2022/06/16 01:33:41;;;;;;;10.10;6.70;;;;;;;20.66;88.17;99870.44;5070012;28;20670;-55
2022/06/16 01:36:14;;;;;;;8.30;6.97;;;;;;;20.68;88.06;99866.91;5068201;28;20196;-55
2022/06/16 01:38:46;;;;;;;8.80;6.97;;;;;;;20.67;88.02;99869.53;5070056;28;20202;-55
2022/06/16 01:41:22;;;;;;;10.73;6.83;;;;;;;20.56;88.06;99867.97;5069172;28;20278;-56
2022/06/16 01:43:56;;;;;;;7.60;6.90;;;;;;;20.56;88.47;99875.81;5070140;28;20241;-56
2022/06/16 01:46:27;;;;;;;8.77;7.77;;;;;;;20.58;88.38;99866.19;5069891;28;20685;-56
2022/06/16 01:49:01;;;;;;;9.83;6.70;;;;;;;20.53;88.35;99865.41;5070094;28;20221;-56
2022/06/16 01:51:35;;;;;;;8.30;7.10;;;;;;;20.60;88.45;99869.63;5070058;28;20211;-56
2022/06/16 01:54:08;;;;;;;10.40;7.20;;;;;;;20.59;88.26;99862.69;5069965;28;20201;-56
2022/06/16 01:56:43;;;;;;;8.97;6.60;;;;;;;20.56;88.29;99857.53;5070098;28;20206;-56
2022/06/16 01:59:15;;;;;;;8.97;6.83;;;;;;;20.62;88.13;99859.16;5070050;28;20187;-56
2022/06/16 02:01:47;;;;;;;6.43;5.83;;;;;;;20.66;87.98;99865.22;5069879;28;20198;-56
2022/06/16 02:04:18;;;;;;;7.53;6.83;;;;;;;20.73;87.57;99870.28;5069861;28;20191;-56
2022/06/16 02:06:51;;;;;;;9.33;6.60;;;;;;;20.76;87.44;99869.34;5069858;28;20215;-56
2022/06/16 02:09:25;;;;;;;12.93;7.70;;;;;;;20.75;87.39;99868.50;5069337;28;20253;-56
2022/06/16 02:11:55;;;;;;;9.43;7.40;;;;;;;20.75;87.70;99875.47;5069681;28;20608;-56
2022/06/16 02:14:30;;;;;;;10.00;7.27;;;;;;;20.63;88.07;99870.47;5069642;28;20673;-56
2022/06/16 02:16:58;;;;;;;12.47;6.80;;;;;;;20.65;88.29;99866.09;5069485;28;20190;-56
2022/06/16 02:19:27;;;;;;;9.53;6.50;;;;;;;20.63;88.24;99873.94;5069593;28;20274;-56
2022/06/16 02:21:54;;;;;;;8.17;6.63;;;;;;;20.58;87.96;99874.03;5069566;28;20662;-56
2022/06/16 02:24:23;;;;;;;8.47;6.17;;;;;;;20.58;88.06;99866.19;5069446;28;20710;-56
2022/06/16 02:26:53;;;;;;;12.15;6.50;;;;;;;20.71;87.73;99879.03;5069279;28;20908;-56
2022/06/16 02:29:25;;;;;;;9.57;7.00;;;;;;;20.66;87.98;99876.47;5069710;28;20195;-56
2022/06/16 02:32:11;;;;;;;8.33;6.87;;;;;;;20.65;87.69;99874.78;5069455;28;20731;-56
2022/06/16 02:34:48;;;;;;;7.90;6.13;;;;;;;20.69;87.38;99884.25;5069276;28;20188;-56
2022/06/16 02:37:32;;;;;;;6.73;5.57;;;;;;;20.65;87.36;99881.75;5069465;28;20701;-56
2022/06/16 02:40:24;;;;;;;9.10;6.00;;;;;;;20.50;88.00;99881.13;5069435;28;20286;-56
2022/06/16 02:43:06;;;;;;;11.13;6.43;;;;;;;20.56;87.72;99878.41;5069619;28;20656;-55
2022/06/16 02:45:39;;;;;;;9.70;6.43;;;;;;;20.37;87.87;99853.53;5069256;28;20662;-56
2022/06/16 02:48:12;;;;;;;7.30;5.60;;;;;;;20.50;88.20;99878.53;5069189;28;20223;-55
2022/06/16 02:50:46;;;;;;;8.87;6.40;;;;;;;20.45;88.16;99876.88;5069795;28;20191;-54
2022/06/16 02:53:31;;;;;;;7.73;6.20;;;;;;;20.29;88.40;99881.50;5072995;28;20205;-55
2022/06/16 02:56:06;;;;;;;14.20;6.43;;;;;;;20.19;88.93;99871.22;5072647;28;20199;-55
2022/06/16 02:58:36;;;;;;;7.40;5.40;;;;;;;20.17;89.11;99872.97;5072603;28;20193;-55
2022/06/16 03:01:05;;;;;;;10.83;6.20;;;;;;;20.16;89.64;99879.09;5072532;28;20202;-55
2022/06/16 03:03:34;;;;;;;9.83;6.30;;;;;;;20.21;89.70;99888.59;5072782;28;20199;-55
2022/06/16 03:06:01;;;;;;;8.97;5.80;;;;;;;20.18;89.16;99886.00;5072544;28;20202;-56
2022/06/16 03:08:31;;;;;;;8.73;5.88;;;;;;;20.28;89.33;99884.13;5070660;28;20449;-65
2022/06/16 03:10:59;;;;;;;7.07;5.87;;;;;;;20.33;88.43;99882.31;5072791;28;20195;-64
2022/06/16 03:13:28;;;;;;;9.37;5.93;;;;;;;20.22;88.73;99882.44;5072549;28;20269;-64
2022/06/16 03:15:57;;;;;;;6.53;5.90;;;;;;;20.14;89.37;99881.72;5072640;28;20195;-65
2022/06/16 03:18:25;;;;;;;7.57;6.27;;;;;;;20.17;88.88;99894.72;5072428;28;20570;-64
2022/06/16 03:20:54;;;;;;;7.10;6.30;;;;;;;20.11;88.93;99863.50;5072547;28;20195;-65
2022/06/16 03:23:21;;;;;;;8.53;6.80;;;;;;;20.26;88.78;99897.22;5072471;28;20191;-64
2022/06/16 03:25:48;;;;;;;7.13;5.97;;;;;;;19.96;90.23;99898.53;5072210;28;20191;-64
2022/06/16 03:28:16;;;;;;;7.40;6.60;;;;;;;20.18;90.09;99898.19;5072451;28;20215;-65
2022/06/16 03:30:44;;;;;;;8.52;7.22;;;;;;;20.35;89.61;99893.59;5071267;28;20438;-64
2022/06/16 03:33:11;;;;;;;10.77;7.53;;;;;;;20.52;88.51;99900.22;5072353;28;20188;-64
2022/06/16 03:35:39;;;;;;;11.87;7.57;;;;;;;20.60;88.56;99895.72;5072458;28;20192;-64
2022/06/16 03:38:10;;;;;;;10.63;8.20;;;;;;;20.67;87.56;99899.09;5072202;28;20188;-64
2022/06/16 03:40:37;;;;;;;10.83;9.70;;;;;;;20.61;86.96;99901.81;5072430;28;20199;-64
2022/06/16 03:43:06;;;;;;;9.63;8.63;;;;;;;20.51;87.49;99901.16;5071957;28;20253;-64
2022/06/16 03:45:33;;;;;;;16.87;9.10;;;;;;;20.43;87.77;99876.94;5072392;28;20195;-65
2022/06/16 03:48:00;;;;;;;8.17;7.47;;;;;;;20.59;87.42;99903.63;5072079;28;20212;-64
2022/06/16 03:50:27;;;;;;;11.47;8.03;;;;;;;20.53;87.43;99894.13;5072101;28;20192;-64
2022/06/16 03:52:54;;;;;;;8.87;7.77;;;;;;;20.59;87.69;99894.03;5072016;28;20201;-64
2022/06/16 03:55:23;;;;;;;7.80;6.97;;;;;;;20.58;87.52;99892.31;5072110;28;20570;-65
2022/06/16 03:57:50;;;;;;;8.70;7.77;;;;;;;20.54;87.70;99895.88;5072090;28;20184;-65
2022/06/16 04:00:18;;;;;;;12.87;7.53;;;;;;;20.53;87.69;99899.34;5071974;28;20586;-65
2022/06/16 04:02:45;;;;;;;9.47;7.57;;;;;;;20.64;87.71;99906.13;5071613;28;20642;-64
2022/06/16 04:05:12;;;;;;;11.60;7.13;;;;;;;20.68;87.17;99908.69;5071571;28;20662;-65
2022/06/16 04:07:38;;;;;;;9.83;6.70;;;;;;;20.73;86.90;99900.75;5068757;28;20219;-65
2022/06/16 04:10:10;;;;;;;11.55;7.32;;;;;;;20.79;86.62;99911.97;5068267;28;20836;-64
2022/06/16 04:12:38;;;;;;;13.30;7.90;;;;;;;20.87;86.00;99909.19;5068617;28;20270;-65
2022/06/16 04:15:06;;;;;;;15.20;8.77;;;;;;;20.84;85.75;99915.34;5071256;28;20215;-65
2022/06/16 04:17:33;;;;;;;11.33;7.73;;;;;;;20.84;85.03;99914.47;5068691;28;20176;-65
2022/06/16 04:20:15;;;;;;;13.87;8.90;;;;;;;20.81;85.31;99909.31;5067051;28;20199;-66
2022/06/16 04:22:43;;;;;;;15.43;8.87;;;;;;;20.78;85.71;99909.34;5065079;28;20204;-64
2022/06/16 04:25:13;;;;;;;12.13;9.10;;;;;;;20.78;85.07;99917.19;5063027;28;20203;-65
2022/06/16 04:27:42;;;;;;;14.60;10.40;;;;;;;20.82;84.98;99911.03;5070347;28;20250;-64
2022/06/16 04:30:10;;;;;;;18.43;10.87;;;;;;;20.80;85.05;99920.63;5062553;28;20558;-65
2022/06/16 04:32:38;;;;;;;15.93;12.18;;;;;;;20.86;85.15;99921.38;5070344;28;20444;-65
2022/06/16 04:35:06;;;;;;;14.77;11.50;;;;;;;20.90;85.00;99923.06;5070925;28;20203;-66
2022/06/16 04:37:34;;;;;;;13.50;10.53;;;;;;;20.92;84.56;99917.81;5071325;28;20196;-66
2022/06/16 04:40:01;;;;;;;13.53;10.43;;;;;;;20.81;84.94;99914.53;5070897;28;20190;-65
2022/06/16 04:42:28;;;;;;;12.35;11.15;;;;;;;20.88;85.05;99914.38;5065539;28;20481;-66
2022/06/16 04:44:56;;;;;;;13.37;10.67;;;;;;;20.91;84.35;99916.06;5061799;28;20210;-65
2022/06/16 04:47:23;;;;;;;13.67;11.10;;;;;;;20.79;84.45;99914.56;5071006;28;20245;-66
2022/06/16 04:49:50;;;;;;;18.00;12.90;;;;;;;20.75;84.49;99915.50;5070934;28;20191;-65
2022/06/16 04:52:17;;;;;;;13.40;12.10;;;;;;;20.70;84.57;99919.09;5070687;28;20199;-66
2022/06/16 04:54:45;;;;;;;15.50;14.00;;;;;;;20.76;84.82;99918.97;5070692;28;20199;-66
2022/06/16 04:57:12;;;;;;;15.53;13.90;;;;;;;20.77;85.23;99916.31;5070521;28;20233;-65
2022/06/16 04:59:40;;;;;;;19.13;14.17;;;;;;;20.92;85.00;99915.19;5070591;28;20609;-66
2022/06/16 05:02:08;;;;;;;21.00;16.10;;;;;;;20.96;84.75;99919.44;5070512;28;20655;-66
2022/06/16 05:04:39;;;;;;;20.17;15.47;;;;;;;20.91;84.36;99897.78;5070675;28;20274;-66
2022/06/16 05:07:06;;;;;;;26.27;16.43;;;;;;;21.03;84.13;99919.31;5069400;28;20192;-66
2022/06/16 05:09:34;;;;;;;19.60;16.50;;;;;;;21.09;83.51;99913.16;5070423;28;20206;-66
2022/06/16 05:12:01;;;;;;;16.38;14.40;;;;;;;21.10;83.40;99913.09;5069486;28;20442;-65
2022/06/16 05:14:28;;;;;;;15.20;13.03;;;;;;;21.24;83.08;99909.34;5069918;28;20198;-65
2022/06/16 05:16:54;;;;;;;11.47;10.30;;;;;;;21.35;82.33;99908.25;5070052;28;20222;-67
2022/06/16 05:19:23;;;;;;;16.33;9.60;;;;;;;21.41;82.04;99915.09;5070153;28;20184;-65
2022/06/16 05:21:50;;;;;;;15.27;8.77;;;;;;;21.39;81.76;99915.16;5069971;28;20192;-65
2022/06/16 05:24:17;;;;;;;12.97;8.53;;;;;;;21.48;81.64;99914.94;5070178;28;20195;-65
2022/06/16 05:26:44;;;;;;;11.37;8.37;;;;;;;21.63;81.04;99914.63;5070048;28;20199;-65
2022/06/16 05:29:11;;;;;;;13.53;9.10;;;;;;;21.74;80.33;99911.75;5070365;28;20643;-65
2022/06/16 05:31:38;;;;;;;9.57;8.60;;;;;;;21.78;79.95;99919.50;5070436;28;20555;-65
2022/06/16 05:34:05;;;;;;;9.97;7.10;;;;;;;21.63;79.90;99921.59;5069840;28;20210;-65
2022/06/16 05:36:33;;;;;;;15.83;11.20;;;;;;;21.74;79.68;99923.09;5069632;28;20199;-65
2022/06/16 05:39:00;;;;;;;12.87;8.90;;;;;;;21.65;80.32;99917.19;5067865;28;20646;-65
2022/06/16 05:41:27;;;;;;;13.10;10.40;;;;;;;21.76;80.49;99921.28;5069090;28;20658;-65
2022/06/16 05:43:54;;;;;;;11.83;9.27;;;;;;;21.72;80.55;99922.28;5069304;28;20227;-66
2022/06/16 05:46:23;;;;;;;16.10;13.03;;;;;;;21.75;80.73;99924.78;5069625;28;20210;-65
2022/06/16 05:48:51;;;;;;;13.90;12.07;;;;;;;21.75;80.63;99922.19;5069840;28;20303;-65
2022/06/16 05:51:18;;;;;;;18.47;14.30;;;;;;;21.67;80.90;99899.72;5069532;28;20666;-65
2022/06/16 05:53:47;;;;;;;21.63;19.40;;;;;;;21.85;80.84;99930.69;5069623;28;20245;-65
2022/06/16 05:56:14;;;;;;;24.30;16.67;;;;;;;21.93;80.36;99930.53;5069984;28;20191;-66
2022/06/16 05:58:42;;;;;;;19.57;15.77;;;;;;;22.02;80.33;99933.81;5069462;28;20195;-64
2022/06/16 06:01:10;;;;;;;17.70;14.07;;;;;;;22.02;79.28;99933.81;5064827;28;20214;-65
2022/06/16 06:03:37;;;;;;;19.70;16.10;;;;;;;22.04;78.81;99926.78;5067429;28;20195;-65
2022/06/16 06:06:04;;;;;;;17.07;14.23;;;;;;;22.10;78.54;99928.41;5069811;28;20195;-64
2022/06/16 06:16:48;;;;;;;17.63;14.20;;;;;;;22.49;76.98;99944.91;5047677;28;20192;-65
2022/06/16 06:19:25;;;;;;;20.20;14.53;;;;;;;22.40;77.07;99940.75;5066699;28;20189;-66
2022/06/16 06:22:00;;;;;;;15.10;13.37;;;;;;;22.48;76.98;99936.19;5066660;28;20183;-66
2022/06/16 06:24:29;;;;;;;23.23;17.07;;;;;;;22.60;76.39;99937.66;5067755;28;20236;-65
2022/06/16 06:26:59;;;;;;;26.43;18.80;;;;;;;22.72;76.03;99946.06;5070031;28;20191;-65
2022/06/16 06:29:26;;;;;;;18.73;15.30;;;;;;;22.84;75.85;99945.78;5071836;28;20227;-65
2022/06/16 06:31:54;;;;;;;20.83;16.90;;;;;;;22.83;75.46;99930.06;5072477;28;20340;-64
2022/06/16 06:34:22;;;;;;;18.33;15.70;;;;;;;22.74;74.54;99925.09;5072766;28;20195;-64
2022/06/16 06:36:49;;;;;;;18.00;15.60;;;;;;;22.77;74.92;99945.97;5072967;28;20571;-64
2022/06/16 06:39:16;;;;;;;19.07;17.07;;;;;;;22.90;74.34;99945.63;5072482;28;20282;-65
2022/06/16 06:41:42;;;;;;;19.83;16.83;;;;;;;22.57;75.30;99942.97;5072744;28;20192;-64
2022/06/16 06:44:11;;;;;;;23.30;17.97;;;;;;;22.60;75.94;99938.53;5072463;28;20227;-64
2022/06/16 06:46:38;;;;;;;26.20;18.37;;;;;;;22.77;74.75;99936.31;5072677;28;20628;-64
2022/06/16 06:49:05;;;;;;;24.67;19.67;;;;;;;22.90;74.35;99936.88;5072315;28;20219;-65
2022/06/16 06:51:32;;;;;;;22.00;19.80;;;;;;;22.98;72.18;99942.78;5072640;28;20209;-64
2022/06/16 06:54:00;;;;;;;24.50;21.90;;;;;;;23.08;72.03;99938.13;5072507;28;20195;-66
2022/06/16 06:56:27;;;;;;;26.60;22.40;;;;;;;23.18;71.76;99945.72;5072520;28;20198;-65
2022/06/16 06:58:54;;;;;;;24.00;21.50;;;;;;;23.22;71.63;99936.84;5072599;28;20309;-65
2022/06/16 07:01:23;;;;;;;25.67;20.67;;;;;;;23.30;71.76;99936.63;5072440;28;20195;-65
2022/06/16 07:03:50;;;;;;;29.10;22.30;;;;;;;23.36;71.72;99946.97;5072441;28;20194;-65
2022/06/16 07:06:18;;;;;;;23.33;20.90;;;;;;;23.41;71.51;99948.56;5072161;28;20187;-65
2022/06/16 07:08:46;;;;;;;30.23;22.90;;;;;;;23.44;70.34;99926.63;5072410;28;20219;-65
2022/06/16 07:11:14;;;;;;;23.50;21.00;;;;;;;23.48;70.96;99937.03;5072226;28;20704;-66
2022/06/16 07:13:41;;;;;;;25.53;20.37;;;;;;;23.59;70.58;99928.84;5072311;28;20204;-66
2022/06/16 07:16:10;;;;;;;22.63;20.23;;;;;;;23.79;69.97;99939.56;5072583;28;20187;-57
2022/06/16 07:18:38;;;;;;;26.73;22.10;;;;;;;23.98;69.56;99938.09;5072164;28;20188;-57
2022/06/16 07:21:06;;;;;;;24.07;20.90;;;;;;;24.25;68.65;99936.41;5072184;28;20253;-57
2022/06/16 07:23:34;;;;;;;25.63;20.53;;;;;;;24.25;67.97;99930.31;5071772;28;20637;-57
2022/06/16 07:26:01;;;;;;;26.40;20.90;;;;;;;24.55;66.81;99931.91;5071587;28;20191;-57
2022/06/16 07:28:28;;;;;;;25.53;21.23;;;;;;;24.72;66.30;99931.34;5071728;28;20306;-57
2022/06/16 07:30:55;;;;;;;25.00;22.23;;;;;;;25.10;64.94;99926.50;5072001;28;20188;-57
2022/06/16 07:33:23;;;;;;;24.93;20.83;;;;;;;25.03;64.30;99926.75;5071878;28;20586;-57
2022/06/16 07:35:55;;;;;;;25.67;21.83;;;;;;;25.01;64.22;99926.81;5071775;28;20191;-57
2022/06/16 07:38:23;;;;;;;27.52;23.85;;;;;;;24.76;64.45;99891.75;5071561;28;20438;-57
2022/06/16 07:40:50;;;;;;;30.30;22.13;;;;;;;24.88;65.22;99922.91;5071988;28;20199;-57
2022/06/16 07:43:17;;;;;;;28.07;22.70;;;;;;;25.31;63.60;99924.84;5071780;28;20239;-57
2022/06/16 07:45:45;;;;;;;27.63;22.80;;;;;;;25.56;62.65;99923.06;5072076;28;20653;-57
2022/06/16 07:48:12;;;;;;;25.40;22.80;;;;;;;24.79;64.96;99923.22;5071560;28;20215;-57
2022/06/16 07:50:39;;;;;;;29.17;22.30;;;;;;;24.43;65.11;99920.03;5071909;28;20200;-57
2022/06/16 07:53:08;;;;;;;31.97;23.50;;;;;;;24.70;65.74;99923.50;5071557;28;20202;-57
2022/06/16 07:55:35;;;;;;;25.27;22.63;;;;;;;25.07;64.49;99917.84;5071694;28;20677;-57
2022/06/16 07:58:02;;;;;;;26.80;23.97;;;;;;;25.30;62.57;99927.53;5071676;28;20628;-65
2022/06/16 08:00:34;;;;;;;24.90;21.37;;;;;;;25.00;63.31;99930.34;5071251;28;20666;-57
2022/06/16 08:03:01;;;;;;;24.70;22.00;;;;;;;25.20;63.18;99930.50;5071868;28;20209;-57
2022/06/16 08:05:28;;;;;;;25.77;22.57;;;;;;;25.54;61.98;99929.28;5071369;28;20187;-57
2022/06/16 08:07:55;;;;;;;27.20;23.13;;;;;;;25.59;61.60;99930.84;5071207;28;20612;-57
2022/06/16 08:10:27;;;;;;;25.57;22.87;;;;;;;25.52;60.34;99936.41;5071207;28;20210;-57
2022/06/16 08:12:54;;;;;;;24.40;21.80;;;;;;;25.10;61.29;99913.34;5071356;28;20192;-57
2022/06/16 08:15:21;;;;;;;27.13;23.20;;;;;;;25.10;61.67;99901.97;5071062;28;20251;-57
2022/06/16 08:17:51;;;;;;;24.00;21.60;;;;;;;24.82;62.70;99930.13;5071220;28;20192;-57
2022/06/16 08:20:18;;;;;;;24.70;22.20;;;;;;;24.63;62.16;99935.16;5070402;28;20434;-57
2022/06/16 08:22:45;;;;;;;23.50;21.17;;;;;;;24.92;62.42;99929.75;5070606;28;20678;-57
2022/06/16 08:25:15;;;;;;;25.97;23.17;;;;;;;25.37;61.87;99934.28;5070833;28;20193;-58
2022/06/16 08:27:45;;;;;;;26.83;23.93;;;;;;;25.28;61.56;99922.31;5071154;28;20214;-57
2022/06/16 08:30:16;;;;;;;26.37;23.67;;;;;;;25.40;62.22;99926.28;5069711;28;20316;-56
2022/06/16 08:32:44;;;;;;;26.63;23.83;;;;;;;25.35;61.63;99922.97;5062076;28;20200;-56
2022/06/16 08:35:11;;;;;;;25.87;23.03;;;;;;;25.31;62.00;99926.59;5058435;28;20684;-56
2022/06/16 08:37:38;;;;;;;26.13;23.53;;;;;;;25.40;61.25;99924.50;5069093;28;20195;-56
2022/06/16 08:40:06;;;;;;;32.07;26.23;;;;;;;25.45;62.14;99924.31;5069850;28;20706;-56
2022/06/16 08:42:41;;;;;;;28.60;25.47;;;;;;;25.50;60.92;99925.91;5067113;28;20206;-64
2022/06/16 08:45:22;;;;;;;25.27;21.90;;;;;;;25.39;61.35;99924.56;5068125;28;20194;-65
2022/06/16 08:47:59;;;;;;;25.20;22.67;;;;;;;25.63;59.98;99914.00;5069545;28;20198;-65
2022/06/16 08:50:33;;;;;;;30.15;25.20;;;;;;;25.88;60.43;99913.91;5069461;28;20452;-65
2022/06/16 08:53:19;;;;;;;24.97;21.87;;;;;;;25.99;58.55;99909.06;5069748;28;20195;-65
2022/06/16 08:55:55;;;;;;;25.97;23.37;;;;;;;25.80;59.21;99908.06;5062087;28;20578;-65
2022/06/16 08:58:32;;;;;;;24.23;21.63;;;;;;;25.73;59.77;99909.25;5069688;28;20199;-65
2022/06/16 09:01:07;;;;;;;25.87;23.17;;;;;;;25.54;60.69;99900.34;5059422;28;20211;-65
2022/06/16 09:03:40;;;;;;;25.77;23.17;;;;;;;25.88;60.06;99898.09;5050633;28;20461;-65
2022/06/16 09:06:18;;;;;;;25.73;22.95;;;;;;;25.79;59.67;99877.41;5065656;28;20813;-65
2022/06/16 09:09:03;;;;;;;23.77;21.30;;;;;;;26.17;58.07;99891.69;5063201;28;20223;-65
2022/06/16 09:11:36;;;;;;;25.30;22.47;;;;;;;25.87;58.63;99888.50;5062833;28;20676;-65
2022/06/16 09:14:19;;;;;;;23.20;20.97;;;;;;;25.94;58.99;99895.22;5067777;28;20184;-65
2022/06/16 09:16:55;;;;;;;25.90;23.45;;;;;;;25.89;58.59;99889.28;5068951;28;20793;-64
2022/06/16 09:19:40;;;;;;;23.73;21.17;;;;;;;25.82;59.66;99885.19;5070207;28;20202;-65
2022/06/16 09:22:22;;;;;;;22.80;20.60;;;;;;;26.07;58.53;99885.06;5069844;28;20627;-65
2022/06/16 09:25:03;;;;;;;24.15;21.75;;;;;;;26.28;57.64;99886.84;5069540;28;20440;-65
2022/06/16 09:27:34;;;;;;;21.30;19.27;;;;;;;26.44;56.49;99881.78;5069629;28;20491;-65
2022/06/16 09:30:06;;;;;;;17.53;15.90;;;;;;;26.32;54.12;99884.00;5069967;28;20215;-64
2022/06/16 09:32:40;;;;;;;20.03;17.53;;;;;;;26.62;54.61;99881.00;5069983;28;20230;-65
2022/06/16 09:35:12;;;;;;;20.15;18.17;;;;;;;26.91;54.74;99884.13;5069900;28;20202;-65
2022/06/16 09:37:46;;;;;;;18.57;16.33;;;;;;;27.05;53.99;99872.09;5068857;28;20286;-67
2022/06/16 09:40:20;;;;;;;20.60;18.58;;;;;;;27.14;54.07;99867.25;5069315;28;20281;-64
2022/06/16 09:42:54;;;;;;;20.17;16.90;;;;;;;27.28;53.22;99872.75;5069110;28;20253;-66
2022/06/16 09:45:26;;;;;;;17.92;16.33;;;;;;;27.27;52.86;99867.56;5069741;28;20198;-65
2022/06/16 09:48:00;;;;;;;16.50;15.00;;;;;;;27.28;52.40;99864.84;5064217;28;21033;-65
2022/06/16 09:50:37;;;;;;;12.45;11.07;;;;;;;27.02;49.73;99864.31;5065406;28;20453;-65
2022/06/16 09:53:24;;;;;;;10.82;10.00;;;;;;;26.75;50.79;99864.59;5068829;28;20684;-65
2022/06/16 09:55:55;;;;;;;14.33;12.87;;;;;;;26.60;54.06;99864.38;5066912;28;20223;-65
2022/06/16 09:58:30;;;;;;;12.87;11.77;;;;;;;26.54;55.01;99854.09;5064502;28;20188;-65
2022/06/16 10:01:00;;;;;;;14.70;12.30;;;;;;;26.81;54.71;99861.69;5070100;28;20194;-66
2022/06/16 10:03:35;;;;;;;16.60;15.00;;;;;;;27.23;53.80;99865.97;5070272;28;20669;-65
2022/06/16 10:06:22;;;;;;;15.45;13.88;;;;;;;27.48;51.95;99859.53;5072380;28;20217;-65
2022/06/16 10:08:56;;;;;;;15.05;13.02;;;;;;;27.60;51.54;99854.59;5070574;28;20176;-65
2022/06/16 10:11:34;;;;;;;14.30;12.93;;;;;;;27.69;51.17;99854.19;5072866;28;20661;-66
2022/06/16 10:14:12;;;;;;;14.32;13.02;;;;;;;27.62;51.41;99850.97;5071776;28;20184;-66
2022/06/16 10:16:47;;;;;;;14.07;12.80;;;;;;;27.73;51.40;99847.81;5067126;28;20198;-65
2022/06/16 10:19:15;;;;;;;12.48;11.38;;;;;;;27.07;51.38;99834.16;5070939;28;20187;-57
2022/06/16 10:21:42;;;;;;;13.38;12.07;;;;;;;26.84;52.16;99800.06;5071888;28;20183;-65
2022/06/16 10:24:09;;;;;;;13.27;11.88;;;;;;;27.30;52.96;99836.63;5071818;28;20199;-56
2022/06/16 10:26:36;;;;;;;14.75;13.43;;;;;;;27.71;52.27;99839.09;5072201;28;20420;-56
2022/06/16 10:29:13;;;;;;;17.13;13.95;;;;;;;28.13;51.83;99841.47;5072998;28;20220;-57
2022/06/16 10:31:45;;;;;;;14.48;13.23;;;;;;;28.36;50.93;99834.06;5072931;28;20202;-57
2022/06/16 10:34:28;;;;;;;17.30;15.65;;;;;;;28.45;50.02;99820.41;5069898;28;20799;-57
2022/06/16 10:37:00;;;;;;;13.07;12.07;;;;;;;28.56;48.66;99818.06;5067852;28;20685;-58
2022/06/16 10:39:36;;;;;;;13.48;12.40;;;;;;;28.63;48.69;99823.88;5069124;28;20621;-65
2022/06/16 10:42:08;;;;;;;13.23;12.02;;;;;;;28.34;49.78;99825.38;5070254;28;20666;-65
2022/06/16 10:44:35;;;;;;;18.10;14.77;;;;;;;28.19;50.09;99818.22;5069375;28;20242;-65
2022/06/16 10:47:06;;;;;;;13.23;11.88;;;;;;;28.24;48.74;99807.44;5053891;28;20579;-66
2022/06/16 10:49:38;;;;;;;11.50;10.50;;;;;;;28.24;47.32;99813.53;5056132;28;20695;-65
2022/06/16 10:52:09;;;;;;;12.10;11.10;;;;;;;28.01;47.51;99821.75;5066198;28;20298;-64
2022/06/16 10:54:38;;;;;;;13.90;12.80;;;;;;;27.98;49.76;99812.19;5052774;28;20199;-65
2022/06/16 10:57:14;;;;;;;15.18;13.63;;;;;;;28.00;50.77;99807.69;5071907;28;20192;-63
2022/06/16 10:59:47;;;;;;;13.85;12.38;;;;;;;27.88;50.06;99813.56;5072566;28;20191;-65
2022/06/16 11:02:25;;;;;;;14.30;12.95;;;;;;;28.23;49.70;99797.78;5052831;28;20275;-64
2022/06/16 11:04:58;;;;;;;13.65;12.45;;;;;;;28.44;47.92;99802.81;5066056;28;20195;-65
2022/06/16 11:07:28;;;;;;;15.10;13.43;;;;;;;28.74;48.72;99796.88;5072113;28;20196;-56
2022/06/16 11:10:04;;;;;;;17.02;15.00;;;;;;;28.80;46.56;99793.91;5068566;28;20309;-65
2022/06/16 11:12:32;;;;;;;11.95;10.85;;;;;;;28.38;47.06;99792.53;5069238;28;20183;-66
2022/06/16 11:15:04;;;;;;;11.65;10.65;;;;;;;28.26;45.99;99785.28;5071700;28;20282;-66
2022/06/16 11:17:37;;;;;;;12.05;11.05;;;;;;;28.27;47.01;99792.25;5071642;28;20272;-66
2022/06/16 11:20:16;;;;;;;12.18;11.02;;;;;;;28.47;45.96;99778.84;5060167;28;20192;-66
2022/06/16 11:22:45;;;;;;;15.93;14.43;;;;;;;28.75;45.46;99774.78;5062359;28;21195;-66
2022/06/16 11:25:20;;;;;;;11.38;10.48;;;;;;;28.78;44.10;99774.63;5051994;28;20275;-66
2022/06/16 11:27:49;;;;;;;12.13;11.13;;;;;;;28.98;44.80;99780.53;5051839;28;20203;-66
2022/06/16 11:30:35;;;;;;;12.73;11.52;;;;;;;29.24;44.10;99776.50;5060030;28;20215;-66
2022/06/16 11:33:03;;;;;;;12.38;10.30;;;;;;;29.57;42.87;99782.56;5051684;28;20196;-66
2022/06/16 11:35:44;;;;;;;11.68;10.55;;;;;;;29.59;42.62;99775.34;5051764;28;20203;-65
2022/06/16 11:38:20;;;;;;;17.77;10.15;;;;;;;29.51;41.51;99767.00;5052009;28;20188;-66
2022/06/16 11:40:54;;;;;;;10.57;9.77;;;;;;;29.46;41.46;99768.19;5051316;28;20202;-65
2022/06/16 11:43:41;;;;;;;11.65;10.55;;;;;;;29.44;41.68;99762.16;5051101;28;20215;-66
2022/06/16 11:46:15;;;;;;;11.20;10.13;;;;;;;29.80;41.97;99760.91;5051540;28;20235;-66
2022/06/16 11:48:57;;;;;;;10.85;9.90;;;;;;;29.88;39.02;99764.91;5050381;28;20431;-65
2022/06/16 11:51:34;;;;;;;11.07;9.98;;;;;;;30.09;40.92;99761.84;5051014;28;20702;-65
2022/06/16 11:54:18;;;;;;;10.07;9.30;;;;;;;29.97;40.20;99764.38;5051154;28;20611;-66